Darstellungsparameter: Aktuell verwendete Einstellungen:
Skalierung der Graphiken ... ?
xyx+y,   Skalierungsfaktor:      Skalierung: Modus: x, Faktor: 1
Darstellungszeitraum ... ?
Vom - - bis: - -   Zeitraum: 11.08.2004 - 15.08.2004
Min/Max/Avg-Anzeige ... ?
Zeige MMA aktuell
Zeige MMA Monat
Zeige MMA alles
Zeige --A aktuell
Zeige --A Monat
Zeige --A alles
Keine MMA-Anzeige
MMA:
Minimum Maximum Average (ber die Originaldaten)
MMA-Basis: 11.08.2004 - 15.08.2004
Quicknavigation für Darstellung... ?
Tage:      1T, 2T, 3T, 5T -1T -2T -3T -5T +1T +2T +3T +5T
Wochen: 1W, 2W, 3W -1W -2W -3W +1W +2W +3W
Monate: 1M, 3M, 6M -1M -3M -6M +1M +3M +6M
Jahre:    1J, 3J, 5J, 10J -1J -3J -5J -10J +1J +3J +5J +10J
Nutze für die Darstellung ... ?
Originaldaten oder Mittelwerte auf ...
Stundenbasis Tagesbasis Wochenbasis
Monatsbasis Jahresbasis      Datenbasis: Original-Daten
Darstellen als:
Statistik (Auto) Statistik J:M      Darstellung:
Zur Graphik,    zurück zur Übersicht aller Sensoren.
 
Tabellarische Datenbersicht: ?
 
Sensor: Nr:Datum:Temp:Feuchte:Taupunkt:
Aussen-T/F 1 11-08-2004 00:07:02 18.9 C 93 % 17.74 C
2 11-08-2004 00:19:02 18.7 C 93 % 17.54 C
3 11-08-2004 00:31:02 18.7 C 93 % 17.54 C
4 11-08-2004 00:43:03 18.7 C 93 % 17.54 C
5 11-08-2004 00:55:03 18.6 C 93 % 17.45 C
6 11-08-2004 01:07:03 18.7 C 93 % 17.54 C
7 11-08-2004 01:19:03 18.7 C 94 % 17.71 C
8 11-08-2004 01:31:03 18.7 C 94 % 17.71 C
9 11-08-2004 01:43:03 18.7 C 94 % 17.71 C
10 11-08-2004 01:55:03 18.7 C 93 % 17.54 C
11 11-08-2004 02:07:03 18.7 C 93 % 17.54 C
12 11-08-2004 02:19:03 18.7 C 93 % 17.54 C
13 11-08-2004 02:31:03 18.7 C 93 % 17.54 C
14 11-08-2004 02:43:03 18.7 C 93 % 17.54 C
15 11-08-2004 02:55:03 18.7 C 93 % 17.54 C
16 11-08-2004 03:07:03 18.6 C 93 % 17.45 C
17 11-08-2004 03:19:03 18.5 C 93 % 17.35 C
18 11-08-2004 03:31:03 18.7 C 93 % 17.54 C
19 11-08-2004 03:43:03 18.6 C 93 % 17.45 C
20 11-08-2004 03:55:03 18.5 C 93 % 17.35 C
21 11-08-2004 04:07:03 18.5 C 93 % 17.35 C
22 11-08-2004 04:19:03 18.5 C 93 % 17.35 C
23 11-08-2004 04:31:03 18.4 C 93 % 17.25 C
24 11-08-2004 04:43:03 18.5 C 93 % 17.35 C
25 11-08-2004 04:55:03 18.5 C 93 % 17.35 C
Sensor: Nr:Datum:Temp:Feuchte:Taupunkt:
Aussen-T/F 26 11-08-2004 05:07:04 18.4 C 93 % 17.25 C
27 11-08-2004 05:19:04 18.6 C 94 % 17.62 C
28 11-08-2004 05:31:04 18.3 C 94 % 17.32 C
29 11-08-2004 05:43:04 18.2 C 94 % 17.22 C
30 11-08-2004 05:55:04 18.2 C 94 % 17.22 C
31 11-08-2004 06:07:04 18.4 C 94 % 17.42 C
32 11-08-2004 06:19:04 18.5 C 94 % 17.52 C
33 11-08-2004 06:31:04 18.5 C 94 % 17.52 C
34 11-08-2004 06:43:04 18.5 C 94 % 17.52 C
35 11-08-2004 06:55:04 18.5 C 94 % 17.52 C
36 11-08-2004 07:07:04 18.5 C 95 % 17.68 C
37 11-08-2004 07:19:04 18.5 C 95 % 17.68 C
38 11-08-2004 07:31:04 18.5 C 95 % 17.68 C
39 11-08-2004 07:43:04 18.5 C 95 % 17.68 C
40 11-08-2004 07:55:04 18.2 C 95 % 17.39 C
41 11-08-2004 08:07:04 18.3 C 95 % 17.48 C
42 11-08-2004 08:19:01 18.2 C 95 % 17.39 C
43 11-08-2004 08:31:00 18.2 C 95 % 17.39 C
44 11-08-2004 08:43:00 18.1 C 95 % 17.29 C
45 11-08-2004 08:55:01 18.1 C 95 % 17.29 C
46 11-08-2004 09:07:01 18.3 C 95 % 17.48 C
47 11-08-2004 09:19:01 18.5 C 95 % 17.68 C
48 11-08-2004 09:31:01 19 C 95 % 18.18 C
49 11-08-2004 09:43:01 19.2 C 95 % 18.38 C
50 11-08-2004 09:55:02 19.1 C 95 % 18.28 C
Sensor: Nr:Datum:Temp:Feuchte:Taupunkt:
Aussen-T/F 51 11-08-2004 10:07:02 19.5 C 95 % 18.68 C
52 11-08-2004 10:19:02 19.7 C 95 % 18.88 C
53 11-08-2004 10:31:02 19.9 C 95 % 19.07 C
54 11-08-2004 10:43:02 20.1 C 94 % 19.1 C
55 11-08-2004 10:55:01 20.3 C 93 % 19.13 C
56 11-08-2004 11:07:01 21.4 C 92 % 20.05 C
57 11-08-2004 11:19:01 21.2 C 90 % 19.49 C
58 11-08-2004 11:31:01 21.7 C 90 % 19.99 C
59 11-08-2004 11:43:01 22.3 C 85 % 19.65 C
60 11-08-2004 11:55:01 22.5 C 82 % 19.27 C
61 11-08-2004 12:07:02 23.1 C 82 % 19.86 C
62 11-08-2004 12:19:02 23.6 C 77 % 19.33 C
63 11-08-2004 12:31:01 23.9 C 78 % 19.83 C
64 11-08-2004 12:43:01 24.4 C 75 % 19.68 C
65 11-08-2004 12:55:01 25 C 68 % 18.68 C
66 11-08-2004 13:07:01 25.5 C 67 % 18.92 C
67 11-08-2004 13:19:00 26.4 C 59 % 17.74 C
68 11-08-2004 13:31:00 27.5 C 54 % 17.36 C
69 11-08-2004 13:43:00 29 C 45 % 15.86 C
70 11-08-2004 13:55:01 28.2 C 44 % 14.79 C
71 11-08-2004 14:07:01 26.8 C 60 % 18.38 C
72 11-08-2004 14:19:01 25.4 C 62 % 17.59 C
73 11-08-2004 14:31:00 25.5 C 65 % 18.44 C
74 11-08-2004 14:43:00 27 C 55 % 17.19 C
75 11-08-2004 14:55:02 27.5 C 57 % 18.22 C
Sensor: Nr:Datum:Temp:Feuchte:Taupunkt:
Aussen-T/F 76 11-08-2004 15:07:02 27.4 C 54 % 17.27 C
77 11-08-2004 15:19:01 28.5 C 46 % 15.75 C
78 11-08-2004 15:31:01 28.9 C 47 % 16.45 C
79 11-08-2004 15:43:01 29.8 C 38 % 13.95 C
80 11-08-2004 15:55:01 29.9 C 41 % 15.22 C
81 11-08-2004 16:07:01 28.4 C 47 % 16 C
82 11-08-2004 16:19:01 27.8 C 53 % 17.34 C
83 11-08-2004 16:31:00 27.8 C 55 % 17.93 C
84 11-08-2004 16:43:00 27.3 C 53 % 16.88 C
85 11-08-2004 16:55:01 27.5 C 52 % 16.76 C
86 11-08-2004 17:07:02 28.9 C 46 % 16.12 C
87 11-08-2004 17:19:01 30.2 C 40 % 15.1 C
88 11-08-2004 17:31:01 29.6 C 41 % 14.95 C
89 11-08-2004 17:43:01 30.2 C 42 % 15.86 C
90 11-08-2004 17:55:01 30 C 38 % 14.13 C
91 11-08-2004 18:07:01 30.1 C 37 % 13.81 C
92 11-08-2004 18:19:00 29 C 39 % 13.65 C
93 11-08-2004 18:31:00 29.3 C 38 % 13.51 C
94 11-08-2004 18:43:00 30 C 37 % 13.72 C
95 11-08-2004 18:55:01 29.8 C 38 % 13.95 C
96 11-08-2004 19:07:01 29.5 C 38 % 13.69 C
97 11-08-2004 19:19:01 29.4 C 37 % 13.19 C
98 11-08-2004 19:31:52 29.2 C 38 % 13.42 C
99 11-08-2004 19:45:02 28.2 C 40 % 13.32 C
100 11-08-2004 20:15:02 26.1 C 43 % 12.55 C
Sensor: Nr:Datum:Temp:Feuchte:Taupunkt:
Aussen-T/F 101 11-08-2004 20:45:01 24.4 C 54 % 14.49 C
102 11-08-2004 21:15:01 23.2 C 56 % 13.94 C
103 11-08-2004 21:45:01 22 C 58 % 13.36 C
104 11-08-2004 22:15:02 21.2 C 60 % 13.13 C
105 11-08-2004 22:59:01 20.9 C 66 % 14.31 C
106 11-08-2004 23:29:01 20.6 C 69 % 14.71 C
107 11-08-2004 23:59:01 20.1 C 72 % 14.9 C
108 12-08-2004 00:29:01 19.6 C 75 % 15.05 C
109 12-08-2004 00:59:01 19.3 C 78 % 15.37 C
110 12-08-2004 01:29:02 18.9 C 80 % 15.38 C
111 12-08-2004 01:59:02 18.5 C 81 % 15.18 C
112 12-08-2004 02:29:02 18.1 C 82 % 14.98 C
113 12-08-2004 02:59:02 17.9 C 83 % 14.97 C
114 12-08-2004 03:29:02 17.5 C 84 % 14.77 C
115 12-08-2004 03:59:02 17.3 C 85 % 14.76 C
116 12-08-2004 04:29:02 17.1 C 86 % 14.74 C
117 12-08-2004 04:59:02 17 C 86 % 14.64 C
118 12-08-2004 05:29:02 16.8 C 87 % 14.62 C
119 12-08-2004 05:59:03 16.4 C 87 % 14.23 C
120 12-08-2004 06:29:03 16.6 C 89 % 14.78 C
121 12-08-2004 06:59:03 16.6 C 87 % 14.43 C
122 12-08-2004 07:29:03 16.5 C 88 % 14.51 C
123 12-08-2004 07:59:03 16.8 C 88 % 14.8 C
124 12-08-2004 08:29:03 17.3 C 88 % 15.29 C
125 12-08-2004 08:59:04 17.9 C 88 % 15.88 C
Sensor: Nr:Datum:Temp:Feuchte:Taupunkt:
Aussen-T/F 126 12-08-2004 09:29:04 18.9 C 84 % 16.14 C
127 12-08-2004 09:59:04 20.2 C 80 % 16.64 C
128 12-08-2004 10:29:04 21.1 C 76 % 16.7 C
129 12-08-2004 10:59:04 22.8 C 72 % 17.49 C
130 12-08-2004 11:29:04 25.1 C 56 % 15.71 C
131 12-08-2004 11:59:04 27 C 46 % 14.39 C
132 12-08-2004 12:29:04 27.6 C 47 % 15.27 C
133 12-08-2004 12:59:04 27.9 C 45 % 14.87 C
134 12-08-2004 13:29:04 28.6 C 49 % 16.84 C
135 12-08-2004 13:59:04 30.3 C 40 % 15.19 C
136 12-08-2004 14:29:04 31.1 C 38 % 15.1 C
137 12-08-2004 14:59:04 30.6 C 39 % 15.07 C
138 12-08-2004 15:29:04 27.1 C 55 % 17.28 C
139 12-08-2004 15:59:04 21.8 C 81 % 18.39 C
140 12-08-2004 16:29:05 20 C 87 % 17.77 C
141 12-08-2004 16:59:05 20.2 C 88 % 18.15 C
142 12-08-2004 17:29:05 20.9 C 82 % 17.71 C
143 12-08-2004 17:59:05 19.8 C 77 % 15.65 C
144 12-08-2004 18:29:05 19.4 C 80 % 15.86 C
145 12-08-2004 18:59:05 19.1 C 82 % 15.96 C
146 12-08-2004 19:29:06 19.3 C 80 % 15.76 C
147 12-08-2004 19:59:06 18.9 C 75 % 14.37 C
148 12-08-2004 20:29:06 17.3 C 84 % 14.57 C
149 12-08-2004 20:59:06 17.2 C 85 % 14.66 C
150 12-08-2004 21:29:06 16.9 C 87 % 14.72 C
Sensor: Nr:Datum:Temp:Feuchte:Taupunkt:
Aussen-T/F 151 12-08-2004 21:59:06 16.7 C 84 % 13.98 C
152 12-08-2004 22:29:06 16.3 C 84 % 13.59 C
153 12-08-2004 22:59:06 16.4 C 82 % 13.32 C
154 12-08-2004 23:29:06 16.2 C 82 % 13.13 C
155 12-08-2004 23:59:06 16.6 C 79 % 12.95 C
156 13-08-2004 00:29:06 16.6 C 77 % 12.55 C
157 13-08-2004 00:59:06 16.6 C 77 % 12.55 C
158 13-08-2004 01:29:06 16.7 C 78 % 12.85 C
159 13-08-2004 01:59:06 16.5 C 77 % 12.46 C
160 13-08-2004 02:29:06 16.7 C 76 % 12.45 C
161 13-08-2004 02:59:07 16.7 C 79 % 13.04 C
162 13-08-2004 03:29:07 16.4 C 80 % 12.94 C
163 13-08-2004 03:59:07 16.8 C 79 % 13.14 C
164 13-08-2004 04:29:07 16.8 C 78 % 12.94 C
165 13-08-2004 04:59:07 15.9 C 82 % 12.83 C
166 13-08-2004 05:29:07 16.2 C 81 % 12.94 C
167 13-08-2004 05:59:08 16.3 C 79 % 12.65 C
168 13-08-2004 06:29:08 16.5 C 79 % 12.85 C
169 13-08-2004 06:59:08 16.5 C 80 % 13.04 C
170 13-08-2004 07:29:08 16.6 C 78 % 12.75 C
171 13-08-2004 07:59:08 16 C 85 % 13.48 C
172 13-08-2004 08:29:08 16.4 C 85 % 13.87 C
173 13-08-2004 08:59:08 16.8 C 81 % 13.52 C
174 13-08-2004 09:29:08 17.7 C 76 % 13.42 C
175 13-08-2004 09:59:08 17.2 C 78 % 13.33 C
Sensor: Nr:Datum:Temp:Feuchte:Taupunkt:
Aussen-T/F 176 13-08-2004 10:29:08 16.3 C 86 % 13.95 C
177 13-08-2004 10:59:08 16.6 C 89 % 14.78 C
178 13-08-2004 11:29:08 16.8 C 87 % 14.62 C
179 13-08-2004 11:59:08 18.8 C 75 % 14.28 C
180 13-08-2004 12:29:08 19.5 C 68 % 13.44 C
181 13-08-2004 12:59:08 19.5 C 71 % 14.1 C
182 13-08-2004 13:29:08 19.7 C 75 % 15.15 C
183 13-08-2004 13:59:08 21.8 C 53 % 11.8 C
184 13-08-2004 14:29:08 22.6 C 47 % 10.72 C
185 13-08-2004 14:59:08 22.5 C 52 % 12.16 C
186 13-08-2004 15:29:08 21.2 C 57 % 12.35 C
187 13-08-2004 15:59:09 21.6 C 53 % 11.62 C
188 13-08-2004 16:29:09 23 C 51 % 12.32 C
189 13-08-2004 16:59:09 20.8 C 59 % 12.5 C
190 13-08-2004 17:29:09 18.2 C 76 % 13.9 C
191 13-08-2004 17:59:09 18.5 C 83 % 15.56 C
192 13-08-2004 18:29:09 20.6 C 67 % 14.26 C
193 13-08-2004 18:59:09 18.2 C 80 % 14.69 C
194 13-08-2004 19:29:09 18.5 C 77 % 14.39 C
195 13-08-2004 19:59:09 17.9 C 78 % 14.01 C
196 13-08-2004 20:29:09 17.9 C 74 % 13.2 C
197 13-08-2004 20:59:09 17.4 C 74 % 12.72 C
198 13-08-2004 21:29:09 17.1 C 78 % 13.24 C
199 13-08-2004 21:59:09 17.3 C 76 % 13.03 C
200 13-08-2004 22:29:09 17.3 C 74 % 12.62 C
Sensor: Nr:Datum:Temp:Feuchte:Taupunkt:
Aussen-T/F 201 13-08-2004 22:59:09 17 C 76 % 12.74 C
202 13-08-2004 23:29:09 16.9 C 78 % 13.04 C
203 13-08-2004 23:59:09 16.8 C 78 % 12.94 C
204 14-08-2004 00:29:09 16.8 C 77 % 12.75 C
205 14-08-2004 00:59:10 17 C 76 % 12.74 C
206 14-08-2004 01:29:10 17 C 76 % 12.74 C
207 14-08-2004 01:59:10 17 C 77 % 12.94 C
208 14-08-2004 02:29:10 16.1 C 84 % 13.4 C
209 14-08-2004 02:59:10 15.9 C 87 % 13.74 C
210 14-08-2004 03:29:10 16 C 86 % 13.66 C
211 14-08-2004 03:59:11 16 C 85 % 13.48 C
212 14-08-2004 04:29:11 15.7 C 87 % 13.54 C
213 14-08-2004 04:59:11 15.8 C 88 % 13.82 C
214 14-08-2004 05:29:11 15.6 C 88 % 13.62 C
215 14-08-2004 05:59:11 15.4 C 91 % 13.94 C
216 14-08-2004 06:29:11 15.4 C 92 % 14.11 C
217 14-08-2004 06:59:11 15.4 C 92 % 14.11 C
218 14-08-2004 07:29:11 15.5 C 92 % 14.21 C
219 14-08-2004 07:59:11 15.9 C 91 % 14.43 C
220 14-08-2004 08:29:11 16.4 C 87 % 14.23 C
221 14-08-2004 08:59:11 16 C 89 % 14.19 C
222 14-08-2004 09:29:11 16.2 C 89 % 14.39 C
223 14-08-2004 09:59:12 16.6 C 88 % 14.6 C
224 14-08-2004 10:29:12 16.8 C 88 % 14.8 C
225 14-08-2004 10:59:12 16.9 C 89 % 15.08 C
Sensor: Nr:Datum:Temp:Feuchte:Taupunkt:
Aussen-T/F 226 14-08-2004 11:29:12 16.8 C 89 % 14.98 C
227 14-08-2004 11:59:12 17.5 C 86 % 15.13 C
228 14-08-2004 12:29:12 18.8 C 80 % 15.28 C
229 14-08-2004 12:59:12 18.1 C 82 % 14.98 C
230 14-08-2004 13:29:12 19.3 C 77 % 15.17 C
231 14-08-2004 13:59:12 18.9 C 76 % 14.58 C
232 14-08-2004 14:29:13 18.9 C 80 % 15.38 C
233 14-08-2004 14:59:13 18.1 C 82 % 14.98 C
234 14-08-2004 15:29:13 19.4 C 79 % 15.66 C
235 14-08-2004 15:59:13 20 C 70 % 14.36 C
236 14-08-2004 16:29:13 19.3 C 77 % 15.17 C
237 14-08-2004 16:59:13 19.4 C 71 % 14.01 C
238 14-08-2004 17:29:13 20.5 C 68 % 14.39 C
239 14-08-2004 17:59:13 20.5 C 67 % 14.16 C
240 14-08-2004 18:29:13 22.8 C 58 % 14.11 C
241 14-08-2004 18:59:13 23.4 C 56 % 14.13 C
242 14-08-2004 19:29:13 22.9 C 60 % 14.73 C
243 14-08-2004 19:59:13 22.9 C 63 % 15.48 C
244 14-08-2004 20:29:13 21.3 C 66 % 14.69 C
245 14-08-2004 20:59:13 19.8 C 73 % 14.82 C
246 14-08-2004 21:29:14 19.2 C 76 % 14.87 C
247 14-08-2004 21:59:14 19.1 C 76 % 14.77 C
248 14-08-2004 22:29:14 19.1 C 75 % 14.57 C
249 14-08-2004 22:59:14 18.9 C 76 % 14.58 C
250 14-08-2004 23:29:14 18.8 C 78 % 14.88 C
Sensor: Nr:Datum:Temp:Feuchte:Taupunkt:
Aussen-T/F 251 14-08-2004 23:59:14 18.9 C 77 % 14.78 C
252 15-08-2004 00:29:14 18.3 C 79 % 14.6 C
253 15-08-2004 00:59:14 18.4 C 79 % 14.69 C
254 15-08-2004 01:29:14 18 C 81 % 14.69 C
255 15-08-2004 01:59:14 17.7 C 84 % 14.96 C
256 15-08-2004 02:29:14 17.5 C 84 % 14.77 C
257 15-08-2004 02:59:14 17.4 C 85 % 14.85 C
258 15-08-2004 03:29:14 17.4 C 85 % 14.85 C
259 15-08-2004 03:59:14 17.3 C 86 % 14.94 C
260 15-08-2004 04:29:14 17.2 C 85 % 14.66 C
261 15-08-2004 04:59:14 17.3 C 86 % 14.94 C
262 15-08-2004 05:29:14 17.2 C 85 % 14.66 C
263 15-08-2004 05:59:14 17.1 C 86 % 14.74 C
264 15-08-2004 06:29:14 17.1 C 86 % 14.74 C
265 15-08-2004 06:59:14 17.3 C 85 % 14.76 C
266 15-08-2004 07:29:15 17.3 C 85 % 14.76 C
267 15-08-2004 07:59:15 17.5 C 85 % 14.95 C
268 15-08-2004 08:29:15 17.7 C 84 % 14.96 C
269 15-08-2004 08:59:15 18.5 C 80 % 14.99 C
270 15-08-2004 09:29:15 19.1 C 76 % 14.77 C
271 15-08-2004 09:59:15 19.3 C 73 % 14.34 C
272 15-08-2004 10:29:15 19.8 C 70 % 14.17 C
273 15-08-2004 10:59:15 20.6 C 65 % 13.79 C
274 15-08-2004 11:29:15 21.2 C 60 % 13.13 C
275 15-08-2004 11:59:15 21.4 C 58 % 12.8 C
Sensor: Nr:Datum:Temp:Feuchte:Taupunkt:
Aussen-T/F 276 15-08-2004 12:29:15 22.7 C 54 % 12.92 C
277 15-08-2004 12:59:15 23.2 C 52 % 12.8 C
278 15-08-2004 13:29:15 24.1 C 47 % 12.09 C
279 15-08-2004 13:59:15 24.8 C 44 % 11.72 C
280 15-08-2004 14:29:16 26.1 C 45 % 13.24 C
281 15-08-2004 14:59:16 26.4 C 40 % 11.72 C
282 15-08-2004 15:29:16 27.1 C 36 % 10.75 C
283 15-08-2004 15:59:16 27.7 C 33 % 9.97 C
284 15-08-2004 16:29:16 28.2 C 34 % 10.86 C
285 15-08-2004 16:59:16 27.3 C 32 % 9.17 C
286 15-08-2004 17:29:16 28 C 32 % 9.77 C
287 15-08-2004 17:59:16 28.7 C 31 % 9.91 C
288 15-08-2004 18:29:16 29.2 C 30 % 9.85 C
289 15-08-2004 18:59:16 29.8 C 33 % 11.8 C
290 15-08-2004 19:29:16 29.3 C 37 % 13.1 C
291 15-08-2004 19:59:16 26.2 C 41 % 11.91 C
292 15-08-2004 20:29:16 23.7 C 50 % 12.67 C
293 15-08-2004 20:59:16 22.3 C 56 % 13.1 C
294 15-08-2004 21:29:16 21.6 C 59 % 13.25 C
295 15-08-2004 21:59:16 21.1 C 59 % 12.78 C
296 15-08-2004 22:29:16 20.6 C 65 % 13.79 C
297 15-08-2004 22:59:16 19.7 C 68 % 13.63 C
298 15-08-2004 23:29:16 19.2 C 69 % 13.38 C
299 15-08-2004 23:59:16 18.7 C 73 % 13.76 C

Legende:
   Min
   Max


Maximal/Minimal-Werte vom 11.08.2004 - 15.08.2004

Sensor Min Max Avg
Temp
(Aussen-T/F)
15.4 °C
14-08-2004  05:59:11
31.1 °C
12-08-2004  14:29:04
20.5 °C
Feuchte
(Aussen-T/F)
30 %
15-08-2004  18:29:16
95 %
11-08-2004  07:07:04
74.04 %
Taupunkt
(Aussen-T/F)
9.17 C
15-08-2004  16:59:16
20.05 C
11-08-2004  11:07:01
15.04 C

Die Daten stammen von einer Davis Vantage Pro 2 Wetter-Station und werden unter Linux mit der Software wview2wettercgi und aufbereitet. Alle Angaben erfolgen ohne Gewähr für ihre Vollständigkeit oder Richtigkeit.
Kontakt: Rainer Krienke krienke@uni-koblenz.de . Meine Webseiten an der Uni Koblenz oder privat.
Version: $Revision: 0.78 $